Time;durP1;ratioP1;P1;durP2;ratioP2;P2;SDS_P1;SDS_P2;PMS_P1;PMS_P2;Temp;Humidity;BMP_temperature;BMP_pressure;BME280_temperature;BME280_humidity;BME280_pressure;Samples;Min_cycle;Max_cycle;Signal;HPM_P1;HPM_P2
2021/10/12 00:00:57;;;;;;;107.25;76.47;;;;;;;6.78;63.83;100496.09;1590110;89;21047;-72
2021/10/12 00:03:23;;;;;;;109.83;76.17;;;;;;;6.70;64.09;100485.45;1588311;89;21428;-73
2021/10/12 00:05:49;;;;;;;;;;;;;;;6.62;64.27;100494.69;1590279;89;21162;-72
2021/10/12 00:08:15;;;;;;;96.87;68.90;;;;;;;6.51;64.63;100485.20;1588195;89;20179;-73
2021/10/12 00:10:41;;;;;;;100.70;69.62;;;;;;;6.34;65.12;100484.28;1591339;89;21126;-71
2021/10/12 00:13:08;;;;;;;89.10;61.98;;;;;;;6.28;65.48;100476.16;1587838;89;21055;-73
2021/10/12 00:15:35;;;;;;;88.40;62.93;;;;;;;6.29;65.66;100472.03;1583424;89;21159;-73
2021/10/12 00:18:01;;;;;;;100.55;66.50;;;;;;;6.39;65.52;100474.05;1588166;89;21401;-75
2021/10/12 00:20:27;;;;;;;83.58;60.45;;;;;;;6.31;65.57;100463.91;1587850;89;21119;-72
2021/10/12 00:22:53;;;;;;;79.77;56.75;;;;;;;6.34;65.95;100468.90;1587636;89;21171;-73
2021/10/12 00:25:19;;;;;;;100.45;69.70;;;;;;;6.30;66.46;100467.56;1589026;89;21059;-72
2021/10/12 00:27:45;;;;;;;100.97;66.35;;;;;;;6.26;66.57;100467.05;1583727;90;21115;-72
2021/10/12 00:30:12;;;;;;;99.30;68.97;;;;;;;6.22;66.56;100470.99;1587732;89;21157;-73
2021/10/12 00:32:38;;;;;;;92.95;68.60;;;;;;;6.20;66.57;100470.33;1582134;90;21071;-73
2021/10/12 00:35:05;;;;;;;108.05;74.32;;;;;;;6.16;66.71;100467.63;1587548;89;21075;-73
2021/10/12 00:37:31;;;;;;;102.03;71.07;;;;;;;6.14;66.81;100468.28;1587770;89;21059;-72
2021/10/12 00:39:57;;;;;;;105.63;74.22;;;;;;;6.19;66.71;100466.00;1580554;89;21029;-73
2021/10/12 00:42:24;;;;;;;114.62;76.50;;;;;;;6.32;66.54;100454.49;1583345;90;21105;-71
2021/10/12 00:44:50;;;;;;;97.62;76.40;;;;;;;6.36;66.44;100458.47;1584151;87;21188;-72
2021/10/12 00:47:18;;;;;;;110.10;77.37;;;;;;;6.33;66.41;100460.61;1591063;89;21092;-75
2021/10/12 00:49:44;;;;;;;104.20;76.80;;;;;;;6.25;66.56;100453.45;1588166;89;21067;-73
2021/10/12 00:52:10;;;;;;;107.00;78.33;;;;;;;6.22;66.72;100452.47;1585173;89;21051;-73
2021/10/12 00:54:36;;;;;;;107.72;75.03;;;;;;;6.21;66.78;100448.14;1591126;89;21032;-71
2021/10/12 00:57:02;;;;;;;106.97;78.02;;;;;;;6.17;66.83;100452.92;1575271;87;21136;-71
2021/10/12 00:59:28;;;;;;;103.60;73.70;;;;;;;6.10;66.90;100450.55;1565343;90;21353;-72
2021/10/12 01:01:54;;;;;;;105.72;70.00;;;;;;;6.02;67.18;100450.02;1610539;89;21089;-74
2021/10/12 01:04:21;;;;;;;;;;;;;;;6.02;67.39;100446.55;1603197;89;21562;-73
2021/10/12 01:06:47;;;;;;;97.00;64.70;;;;;;;6.12;67.16;100442.47;1583557;90;20152;-72
2021/10/12 01:09:14;;;;;;;;;;;;;;;6.15;67.08;100434.22;1576642;90;21019;-71
2021/10/12 01:11:40;;;;;;;110.97;70.47;;;;;;;6.19;67.11;100432.91;1613775;89;20149;-73
2021/10/12 01:14:06;;;;;;;104.65;70.95;;;;;;;6.11;67.28;100435.03;1609288;88;20990;-71
2021/10/12 01:16:33;;;;;;;88.97;65.22;;;;;;;6.12;67.35;100437.17;1596987;89;21133;-72
2021/10/12 01:19:05;;;;;;;89.03;61.08;;;;;;;6.14;67.34;100426.78;1618311;89;20955;-74
2021/10/12 01:21:47;;;;;;;91.73;60.07;;;;;;;6.18;67.30;100430.77;1615845;88;21004;-72
2021/10/12 01:24:18;;;;;;;87.37;60.13;;;;;;;6.21;67.30;100431.76;1606513;89;21014;-72
2021/10/12 01:26:45;;;;;;;81.17;58.83;;;;;;;6.21;67.29;100426.97;1614895;89;21091;-72
2021/10/12 01:29:13;;;;;;;87.70;61.30;;;;;;;6.17;67.28;100426.45;1601947;89;21062;-71
2021/10/12 01:31:40;;;;;;;81.43;54.00;;;;;;;6.14;67.33;100424.61;1615652;88;20988;-74
2021/10/12 01:34:15;;;;;;;77.45;55.80;;;;;;;6.19;67.35;100417.03;1605626;88;21009;-70
2021/10/12 01:36:41;;;;;;;88.67;58.27;;;;;;;6.27;67.11;100411.77;1615490;88;20996;-72
2021/10/12 01:39:08;;;;;;;84.30;59.90;;;;;;;6.28;67.15;100413.44;1615755;88;21385;-72
2021/10/12 01:41:34;;;;;;;;;;;;;;;6.27;67.21;100409.13;1615406;88;21126;-72
2021/10/12 01:44:00;;;;;;;88.63;63.33;;;;;;;6.22;67.33;100414.08;1604911;89;20167;-70
2021/10/12 01:46:27;;;;;;;95.83;65.43;;;;;;;6.10;67.58;100413.50;1598193;89;21077;-73
2021/10/12 01:48:53;;;;;;;89.22;63.17;;;;;;;6.08;67.68;100412.02;1605941;89;21058;-72
2021/10/12 01:51:20;;;;;;;90.20;63.90;;;;;;;6.08;67.79;100409.37;1612775;89;21015;-71
2021/10/12 01:53:46;;;;;;;85.57;63.60;;;;;;;6.07;67.83;100413.02;1601654;89;20986;-72
2021/10/12 01:56:12;;;;;;;89.85;67.37;;;;;;;6.04;68.06;100413.64;1615491;86;21510;-72
2021/10/12 01:58:38;;;;;;;90.05;66.90;;;;;;;6.00;68.03;100404.86;1625258;87;21019;-72
2021/10/12 02:01:05;;;;;;;93.87;62.38;;;;;;;5.93;68.26;100409.91;1634540;87;20962;-75
2021/10/12 02:03:31;;;;;;;109.60;78.47;;;;;;;5.93;68.44;100404.61;1631209;87;21014;-75
2021/10/12 02:05:57;;;;;;;113.10;83.90;;;;;;;5.98;68.44;100402.87;1627403;87;20982;-71
2021/10/12 02:08:23;;;;;;;124.30;87.20;;;;;;;5.95;68.42;100404.02;1630698;87;21110;-73
2021/10/12 02:10:49;;;;;;;118.02;86.10;;;;;;;5.91;68.69;100392.54;1633105;86;20963;-75
2021/10/12 02:13:15;;;;;;;125.55;91.25;;;;;;;5.89;68.81;100393.19;1636443;87;20991;-72
2021/10/12 02:15:42;;;;;;;130.07;94.65;;;;;;;5.87;68.98;100393.84;1642185;86;21071;-73
2021/10/12 02:18:08;;;;;;;132.25;92.75;;;;;;;5.85;69.00;100392.67;1632456;87;20986;-72
2021/10/12 02:20:34;;;;;;;127.25;92.08;;;;;;;5.84;68.99;100391.03;1626972;87;20951;-73
2021/10/12 02:23:00;;;;;;;122.92;83.52;;;;;;;5.83;68.97;100395.97;1641864;86;21059;-72
2021/10/12 02:25:26;;;;;;;120.72;78.62;;;;;;;5.90;68.95;100389.58;1642185;86;21028;-72
2021/10/12 02:27:52;;;;;;;116.60;79.77;;;;;;;6.01;68.62;100381.40;1641211;86;21000;-72
2021/10/12 02:30:18;;;;;;;118.65;82.80;;;;;;;6.06;68.49;100380.91;1640633;86;21083;-72
2021/10/12 02:32:44;;;;;;;120.90;80.65;;;;;;;6.08;68.48;100377.61;1633631;86;21880;-72
2021/10/12 02:35:10;;;;;;;116.28;82.55;;;;;;;6.06;68.58;100374.30;1640230;86;21030;-73
2021/10/12 02:37:36;;;;;;;112.42;81.63;;;;;;;6.04;68.55;100373.13;1635084;87;21012;-71
2021/10/12 02:40:03;;;;;;;110.05;79.82;;;;;;;6.04;68.53;100375.77;1635594;87;20967;-74
2021/10/12 02:42:29;;;;;;;117.40;83.63;;;;;;;6.01;68.40;100371.64;1629986;88;21489;-73
2021/10/12 02:44:55;;;;;;;111.85;79.58;;;;;;;5.97;68.43;100370.30;1626816;85;20969;-71
2021/10/12 02:47:21;;;;;;;105.72;77.35;;;;;;;5.97;68.35;100370.77;1593180;87;22027;-73
2021/10/12 02:49:49;;;;;;;104.13;73.33;;;;;;;5.94;68.33;100359.16;1612018;89;20975;-75
2021/10/12 02:52:14;;;;;;;108.47;74.17;;;;;;;5.94;68.25;100359.16;1615424;87;20989;-73
2021/10/12 02:54:40;;;;;;;105.95;72.53;;;;;;;6.00;68.12;100354.59;1616034;87;21003;-74
2021/10/12 02:57:06;;;;;;;107.63;75.42;;;;;;;6.04;68.12;100350.64;1655025;86;20990;-71
2021/10/12 02:59:32;;;;;;;105.60;75.45;;;;;;;6.07;68.14;100350.83;1626644;87;21578;-73
2021/10/12 03:01:58;;;;;;;100.47;75.30;;;;;;;6.03;68.26;100344.52;1598196;87;21777;-74
2021/10/12 03:04:24;;;;;;;106.95;75.08;;;;;;;6.01;68.21;100350.47;1619504;87;21017;-72
2021/10/12 03:06:50;;;;;;;105.25;72.78;;;;;;;5.96;68.20;100339.52;1645572;86;21009;-70
2021/10/12 03:09:16;;;;;;;96.12;68.12;;;;;;;5.93;68.30;100341.12;1623486;86;20925;-76
2021/10/12 03:11:43;;;;;;;89.55;63.63;;;;;;;5.90;68.39;100336.16;1641193;86;21061;-71
2021/10/12 03:14:09;;;;;;;92.00;63.65;;;;;;;5.87;68.40;100329.85;1631615;86;21001;-73
2021/10/12 03:16:35;;;;;;;;;;;;;;;5.84;68.47;100332.83;1647585;86;21014;-73
2021/10/12 03:19:01;;;;;;;87.40;62.80;;;;;;;5.80;68.60;100331.46;1647297;86;20444;-72
2021/10/12 03:21:33;;;;;;;;;;;;;;;5.74;68.75;100332.92;1650421;86;20980;-74
2021/10/12 03:23:56;;;;;;;87.72;54.08;;;;;;;5.78;68.67;100334.29;1619201;87;20518;-72
2021/10/12 03:26:22;;;;;;;78.07;54.55;;;;;;;5.87;68.51;100329.03;1619389;87;20965;-72
2021/10/12 03:28:47;;;;;;;77.25;57.25;;;;;;;5.93;68.42;100328.39;1629962;86;21536;-74
2021/10/12 03:31:13;;;;;;;84.10;57.15;;;;;;;5.93;68.40;100327.89;1642913;86;21117;-71
2021/10/12 03:33:40;;;;;;;75.60;55.10;;;;;;;5.93;68.36;100322.59;1646875;86;20985;-72
2021/10/12 03:36:16;;;;;;;83.75;57.05;;;;;;;5.92;68.25;100320.95;1645982;86;20974;-73
2021/10/12 03:38:43;;;;;;;80.83;55.60;;;;;;;5.92;68.24;100321.45;1639714;87;21049;-74
2021/10/12 03:41:09;;;;;;;;;;;;;;;5.88;68.25;100326.23;1632483;88;20956;-76
2021/10/12 03:43:35;;;;;;;82.30;56.77;;;;;;;5.84;68.25;100324.39;1645200;86;20115;-74
2021/10/12 03:46:01;;;;;;;;;;;;;;;5.77;68.34;100318.57;1648879;86;20998;-75
2021/10/12 03:48:28;;;;;;;71.80;52.57;;;;;;;5.75;68.43;100317.91;1654093;86;20123;-73
2021/10/12 03:50:54;;;;;;;81.02;51.95;;;;;;;5.69;68.58;100314.54;1623863;87;21033;-73
2021/10/12 03:53:20;;;;;;;74.97;51.10;;;;;;;5.74;68.42;100310.44;1623926;86;21580;-73
2021/10/12 03:55:46;;;;;;;80.40;53.50;;;;;;;5.88;68.21;100312.16;1622570;87;21608;-76
2021/10/12 03:58:12;;;;;;;69.72;50.40;;;;;;;5.93;68.11;100307.23;1621961;87;21533;-74
2021/10/12 04:00:38;;;;;;;80.60;55.45;;;;;;;5.90;68.17;100313.67;1620435;87;21598;-72
2021/10/12 04:03:04;;;;;;;82.40;55.45;;;;;;;5.85;68.06;100306.20;1647978;86;21021;-74
2021/10/12 04:05:30;;;;;;;73.35;54.27;;;;;;;5.81;68.07;100310.15;1639911;87;21033;-74
2021/10/12 04:07:56;;;;;;;74.82;53.60;;;;;;;5.77;68.01;100309.31;1629138;87;21136;-76
2021/10/12 04:10:22;;;;;;;77.20;53.83;;;;;;;5.70;68.20;100308.28;1616555;87;22281;-74
2021/10/12 04:12:50;;;;;;;75.90;53.40;;;;;;;5.65;68.34;100302.97;1618618;86;21064;-73
2021/10/12 04:15:16;;;;;;;68.70;50.43;;;;;;;5.63;68.51;100302.30;1619351;87;21023;-73
2021/10/12 04:17:42;;;;;;;71.28;51.45;;;;;;;5.70;68.49;100299.84;1653015;86;21013;-73
2021/10/12 04:20:10;;;;;;;79.37;53.52;;;;;;;5.82;68.17;100300.39;1628967;87;21105;-74
2021/10/12 04:22:36;;;;;;;71.30;50.83;;;;;;;5.89;68.07;100301.42;1623850;87;21076;-75
2021/10/12 04:25:03;;;;;;;73.90;53.65;;;;;;;5.87;68.04;100301.25;1609711;87;21463;-72
2021/10/12 04:27:30;;;;;;;76.50;56.07;;;;;;;5.85;68.08;100297.44;1658990;86;21093;-74
2021/10/12 04:29:56;;;;;;;80.67;57.00;;;;;;;5.82;68.09;100292.45;1631642;87;21025;-76
2021/10/12 04:32:22;;;;;;;75.10;53.83;;;;;;;5.81;68.13;100296.11;1618219;87;21017;-74
2021/10/12 04:34:50;;;;;;;78.90;53.93;;;;;;;5.78;68.25;100291.12;1619851;86;21085;-75
2021/10/12 04:37:18;;;;;;;77.87;58.02;;;;;;;5.77;68.38;100297.41;1619982;87;21103;-73
2021/10/12 04:39:44;;;;;;;79.17;59.23;;;;;;;5.75;68.33;100291.45;1659968;86;21578;-73
2021/10/12 04:42:10;;;;;;;83.07;58.60;;;;;;;5.74;68.39;100294.56;1632337;87;21526;-75
2021/10/12 04:44:36;;;;;;;84.00;53.78;;;;;;;5.79;68.28;100287.00;1645898;86;21013;-74
2021/10/12 04:47:03;;;;;;;87.33;59.03;;;;;;;5.93;68.02;100288.20;1613908;89;21048;-73
2021/10/12 04:49:29;;;;;;;90.47;62.60;;;;;;;5.99;67.89;100284.97;1614388;88;21000;-74
2021/10/12 04:51:55;;;;;;;87.85;60.80;;;;;;;5.99;67.95;100282.33;1623918;87;21052;-75
2021/10/12 04:54:21;;;;;;;81.92;59.53;;;;;;;6.01;67.96;100282.99;1635298;87;21533;-73
2021/10/12 04:56:47;;;;;;;85.87;60.83;;;;;;;6.04;67.85;100280.52;1631118;87;20973;-72
2021/10/12 04:59:13;;;;;;;91.82;64.62;;;;;;;6.02;67.77;100275.88;1647424;87;21096;-76
2021/10/12 05:01:39;;;;;;;93.35;65.22;;;;;;;6.00;67.80;100280.50;1657672;86;20982;-74
2021/10/12 05:04:05;;;;;;;93.10;65.90;;;;;;;5.97;67.88;100282.98;1633706;87;21010;-76
2021/10/12 05:06:32;;;;;;;99.83;66.10;;;;;;;5.97;67.96;100282.14;1639797;85;20974;-73
2021/10/12 05:08:59;;;;;;;85.40;60.00;;;;;;;5.97;68.12;100284.78;1649687;87;20958;-75
2021/10/12 05:11:27;;;;;;;90.93;60.23;;;;;;;6.03;67.95;100287.63;1654685;86;21057;-74
2021/10/12 05:13:56;;;;;;;84.70;60.30;;;;;;;6.12;67.84;100277.91;1645826;86;21140;-74
2021/10/12 05:16:21;;;;;;;93.67;65.33;;;;;;;6.17;67.91;100278.74;1618027;88;21341;-74
2021/10/12 05:18:50;;;;;;;95.87;66.20;;;;;;;6.13;68.04;100270.80;1645518;86;20997;-72
2021/10/12 05:21:16;;;;;;;93.97;66.67;;;;;;;6.11;68.13;100271.45;1647527;86;21141;-77
2021/10/12 05:23:42;;;;;;;86.78;63.15;;;;;;;5.96;68.20;100246.92;1645431;85;21069;-72
2021/10/12 05:26:10;;;;;;;97.42;66.00;;;;;;;6.09;68.34;100269.47;1610958;88;21017;-74
2021/10/12 05:28:37;;;;;;;94.03;66.40;;;;;;;6.07;68.45;100268.80;1613933;89;21432;-76
2021/10/12 05:31:03;;;;;;;89.55;60.33;;;;;;;6.14;68.81;100267.99;1612560;87;21715;-78
2021/10/12 05:33:30;;;;;;;89.00;57.58;;;;;;;6.41;68.49;100265.56;1613533;87;21037;-73
2021/10/12 05:35:56;;;;;;;99.40;65.50;;;;;;;6.70;67.53;100268.23;1613218;87;21024;-75
2021/10/12 05:38:22;;;;;;;91.60;61.77;;;;;;;6.81;67.02;100270.55;1634415;87;21023;-72
2021/10/12 05:40:49;;;;;;;92.45;60.75;;;;;;;6.87;66.95;100265.59;1629220;85;21045;-73
2021/10/12 05:43:16;;;;;;;95.40;61.87;;;;;;;6.89;66.64;100264.93;1623072;86;21037;-74
2021/10/12 05:45:42;;;;;;;89.77;63.07;;;;;;;6.98;66.75;100267.41;1618417;87;21555;-78
2021/10/12 05:48:10;;;;;;;97.70;62.90;;;;;;;7.09;66.20;100262.78;1617667;87;21076;-73
2021/10/12 05:50:41;;;;;;;102.10;65.07;;;;;;;7.14;65.85;100259.10;1641585;85;21607;-73
2021/10/12 05:55:56;;;;;;;;;;;;;;;7.18;65.31;100261.77;1646396;86;21135;-76
2021/10/12 05:58:07;;;;;;;95.28;62.48;;;;;;;7.12;65.38;100269.05;1635495;85;20160;-71
2021/10/12 06:00:35;;;;;;;85.67;61.90;;;;;;;7.01;65.63;100266.27;1631895;86;21023;-70
2021/10/12 06:03:01;;;;;;;93.63;58.77;;;;;;;6.95;65.77;100266.44;1643976;86;21065;-75
2021/10/12 06:05:27;;;;;;;77.42;55.15;;;;;;;6.95;65.93;100262.45;1621128;87;21029;-74
2021/10/12 06:07:54;;;;;;;82.47;58.70;;;;;;;6.98;66.02;100264.75;1644888;86;21047;-74
2021/10/12 06:10:20;;;;;;;74.92;56.35;;;;;;;7.00;66.00;100268.57;1645440;86;21070;-72
2021/10/12 06:12:50;;;;;;;81.90;59.33;;;;;;;6.96;66.31;100265.42;1620330;87;21043;-72
2021/10/12 06:15:19;;;;;;;82.73;55.13;;;;;;;6.98;66.38;100266.08;1640616;86;21069;-75
2021/10/12 06:17:45;;;;;;;78.53;56.73;;;;;;;7.03;66.44;100266.92;1621995;86;21053;-75
2021/10/12 06:20:11;;;;;;;87.05;58.23;;;;;;;7.11;66.34;100262.92;1641004;86;21081;-75
2021/10/12 06:22:37;;;;;;;73.92;55.50;;;;;;;7.13;66.20;100246.36;1640111;86;21018;-73
2021/10/12 06:25:04;;;;;;;79.22;58.48;;;;;;;7.36;66.00;100259.72;1642786;86;20997;-73
2021/10/12 06:27:30;;;;;;;82.83;56.30;;;;;;;7.51;65.70;100256.39;1650322;86;21033;-74
2021/10/12 06:29:56;;;;;;;81.97;55.92;;;;;;;7.65;65.33;100258.81;1647632;85;21064;-75
2021/10/12 06:32:22;;;;;;;68.83;50.92;;;;;;;7.79;64.87;100262.09;1641956;86;21085;-73
2021/10/12 06:34:48;;;;;;;70.20;50.45;;;;;;;7.92;64.32;100262.36;1647123;85;21388;-71
2021/10/12 06:37:14;;;;;;;71.07;53.38;;;;;;;7.92;64.11;100263.70;1624737;87;21929;-75
2021/10/12 06:39:40;;;;;;;65.62;49.35;;;;;;;7.91;64.25;100262.06;1643207;85;21180;-73
2021/10/12 06:42:06;;;;;;;66.22;50.30;;;;;;;7.92;64.15;100265.53;1648697;86;22109;-73
2021/10/12 06:44:32;;;;;;;71.12;52.95;;;;;;;7.91;64.08;100262.06;1641628;85;21175;-73
2021/10/12 06:46:58;;;;;;;74.65;52.20;;;;;;;7.96;64.30;100261.02;1637824;85;21077;-74
2021/10/12 06:49:26;;;;;;;65.60;48.63;;;;;;;8.07;63.98;100253.17;1640910;86;21511;-73
2021/10/12 06:51:52;;;;;;;66.22;45.63;;;;;;;8.14;63.36;100251.48;1623660;87;21730;-72
2021/10/12 06:54:20;;;;;;;70.07;47.10;;;;;;;8.22;63.23;100253.77;1629097;87;21036;-73
2021/10/12 06:56:48;;;;;;;68.15;49.05;;;;;;;8.28;62.57;100251.73;1646394;86;21077;-71
2021/10/12 06:59:16;;;;;;;67.77;46.73;;;;;;;8.33;62.55;100250.72;1637677;86;21058;-73
2021/10/12 07:01:42;;;;;;;65.47;49.18;;;;;;;8.35;62.68;100248.20;1642219;86;21101;-74
2021/10/12 07:04:08;;;;;;;59.40;44.23;;;;;;;8.44;62.54;100242.85;1642602;86;21072;-74
2021/10/12 07:09:27;;;;;;;66.37;50.80;;;;;;;8.81;60.87;100248.72;1790837;79;23007;-73
2021/10/12 07:11:53;;;;;;;;;;;;;;;8.87;61.12;100247.17;1738330;81;21136;-74
2021/10/12 07:14:18;;;;;;;58.30;47.77;;;;;;;9.01;60.86;100246.39;1718831;82;20157;-75
2021/10/12 07:16:46;;;;;;;62.57;46.77;;;;;;;9.14;60.61;100241.80;1712455;83;21148;-74
2021/10/12 07:19:12;;;;;;;57.65;42.88;;;;;;;9.32;60.07;100240.95;1724629;83;21439;-72
2021/10/12 07:21:39;;;;;;;61.80;44.60;;;;;;;9.51;59.73;100235.58;1719487;83;21128;-74
2021/10/12 07:24:05;;;;;;;57.50;40.60;;;;;;;9.73;58.93;100235.14;1707099;81;22120;-73
2021/10/12 07:26:31;;;;;;;50.92;40.03;;;;;;;9.88;58.44;100225.80;1724322;83;21017;-72
2021/10/12 07:28:58;;;;;;;51.00;38.67;;;;;;;9.98;57.83;100224.69;1717574;83;21072;-73
2021/10/12 07:31:26;;;;;;;47.97;38.73;;;;;;;10.05;57.71;100221.59;1726235;83;21028;-75
2021/10/12 07:33:54;;;;;;;55.93;38.03;;;;;;;10.16;57.54;100223.77;1716090;83;21020;-74
2021/10/12 07:36:20;;;;;;;;;;;;;;;10.28;57.00;100222.27;1701847;84;21124;-74
2021/10/12 07:38:46;;;;;;;37.70;32.53;;;;;;;10.37;56.72;100211.00;1699538;84;20124;-73
2021/10/12 07:41:12;;;;;;;45.55;32.83;;;;;;;10.43;56.66;100212.08;1699382;84;21044;-72
2021/10/12 07:43:39;;;;;;;41.73;31.50;;;;;;;10.57;56.47;100208.53;1698709;84;21128;-74
2021/10/12 07:46:06;;;;;;;42.87;35.80;;;;;;;10.75;55.68;100213.91;1698996;82;21446;-74
2021/10/12 07:48:33;;;;;;;48.53;36.07;;;;;;;10.92;55.47;100213.94;1689015;83;21541;-73
2021/10/12 07:50:59;;;;;;;50.20;36.53;;;;;;;11.05;55.31;100213.21;1699440;84;21074;-74
2021/10/12 07:53:25;;;;;;;43.30;35.55;;;;;;;11.18;54.96;100215.16;1699509;83;21548;-74
2021/10/12 07:55:58;;;;;;;49.42;38.98;;;;;;;11.31;54.37;100207.23;1688574;84;21057;-73
2021/10/12 07:58:22;;;;;;;39.40;34.97;;;;;;;11.40;54.09;100204.72;1694858;83;22050;-74
2021/10/12 08:00:50;;;;;;;50.40;38.02;;;;;;;11.50;53.81;100206.50;1696529;83;21245;-71
2021/10/12 08:03:17;;;;;;;47.08;36.00;;;;;;;11.62;53.82;100199.27;1700004;84;21058;-75
2021/10/12 08:05:44;;;;;;;47.62;35.13;;;;;;;11.72;53.30;100199.74;1700896;84;21016;-73
2021/10/12 08:08:10;;;;;;;42.40;35.45;;;;;;;11.78;53.08;100195.45;1698141;84;21068;-73
2021/10/12 08:10:38;;;;;;;45.78;33.58;;;;;;;11.85;53.18;100197.64;1697478;83;21470;-76
2021/10/12 08:13:14;;;;;;;48.87;34.60;;;;;;;11.95;52.68;100186.60;1717231;81;21514;-76
2021/10/12 08:15:41;;;;;;;48.35;37.20;;;;;;;12.02;52.31;100187.45;1706271;81;20993;-72
2021/10/12 08:18:07;;;;;;;40.15;35.38;;;;;;;11.87;52.48;100163.55;1725186;81;21017;-72
2021/10/12 08:20:35;;;;;;;51.83;36.53;;;;;;;11.96;52.64;100174.88;1698720;84;21045;-76
2021/10/12 08:23:01;;;;;;;45.43;35.63;;;;;;;11.98;52.61;100176.34;1677378;84;21001;-76
2021/10/12 08:25:27;;;;;;;46.53;36.00;;;;;;;12.02;52.76;100165.56;1676708;84;21414;-75
2021/10/12 08:27:53;;;;;;;47.20;36.45;;;;;;;12.10;52.86;100157.87;1670233;85;20966;-73
2021/10/12 08:30:19;;;;;;;47.62;34.85;;;;;;;12.20;52.79;100159.62;1692390;84;21009;-74
2021/10/12 08:32:45;;;;;;;55.95;37.50;;;;;;;12.31;52.28;100150.19;1661744;85;20965;-75
2021/10/12 08:35:11;;;;;;;55.88;37.58;;;;;;;12.43;52.16;100154.40;1669110;85;20993;-77
2021/10/12 08:37:39;;;;;;;65.00;39.15;;;;;;;12.59;51.79;100149.17;1672218;84;20961;-76
2021/10/12 08:40:17;;;;;;;48.52;33.48;;;;;;;12.74;51.62;100143.61;1675366;85;21426;-75
2021/10/12 08:42:51;;;;;;;50.65;32.60;;;;;;;12.87;51.05;100142.27;1677848;85;20977;-76
2021/10/12 08:45:20;;;;;;;42.13;32.13;;;;;;;12.98;50.30;100141.63;1665033;85;20993;-75
2021/10/12 08:47:49;;;;;;;34.98;30.15;;;;;;;13.03;50.40;100136.97;1675094;84;20970;-73
2021/10/12 08:50:24;;;;;;;40.65;30.77;;;;;;;13.05;50.44;100138.92;1675126;84;20974;-75
2021/10/12 08:52:50;;;;;;;34.10;28.35;;;;;;;13.12;50.49;100127.69;1675018;84;21065;-74
2021/10/12 08:55:17;;;;;;;31.27;25.57;;;;;;;13.19;50.06;100125.01;1667031;85;20989;-76
2021/10/12 08:57:46;;;;;;;34.55;27.02;;;;;;;13.23;49.76;100128.90;1674935;85;20978;-77
2021/10/12 09:00:18;;;;;;;29.67;25.20;;;;;;;13.23;49.75;100125.70;1673142;85;21402;-78
2021/10/12 09:05:58;;;;;;;28.23;23.50;;;;;;;13.24;49.76;100126.52;1660374;84;21691;-78
2021/10/12 09:08:35;;;;;;;27.05;23.40;;;;;;;13.19;49.67;100119.13;1676656;84;21025;-75
2021/10/12 09:11:05;;;;;;;29.37;23.73;;;;;;;13.18;49.85;100120.15;1683660;85;20954;-76
2021/10/12 09:13:47;;;;;;;26.65;21.30;;;;;;;13.21;49.89;100118.92;1644525;85;21001;-77
2021/10/12 09:16:17;;;;;;;26.07;21.50;;;;;;;13.30;49.82;100111.00;1665833;85;21010;-77
2021/10/12 09:18:52;;;;;;;28.85;20.48;;;;;;;13.29;49.79;100098.61;1646866;85;21033;-77
2021/10/12 09:21:30;;;;;;;24.50;20.55;;;;;;;13.54;49.43;100100.59;1660113;85;21457;-76
2021/10/12 09:24:15;;;;;;;21.42;18.25;;;;;;;13.60;48.75;100101.91;1624467;85;21524;-78
2021/10/12 09:26:50;;;;;;;21.20;18.35;;;;;;;13.55;48.92;100092.34;1632155;87;21396;-78
2021/10/12 09:29:29;;;;;;;28.77;20.27;;;;;;;13.58;49.35;100093.27;1615704;86;21542;-79
2021/10/12 09:31:59;;;;;;;23.55;19.92;;;;;;;13.57;49.05;100070.72;1615690;87;21534;-76
2021/10/12 09:34:28;;;;;;;31.05;19.80;;;;;;;13.78;48.95;100084.29;1633590;86;20998;-76
2021/10/12 09:36:55;;;;;;;25.05;18.52;;;;;;;13.83;48.83;100079.11;1638792;86;20994;-81
2021/10/12 09:39:42;;;;;;;21.68;19.32;;;;;;;13.87;48.73;100078.17;1631701;85;21219;-75
2021/10/12 09:42:12;;;;;;;22.77;16.90;;;;;;;13.89;48.54;100076.09;1631419;86;21179;-77
2021/10/12 09:44:58;;;;;;;21.90;18.57;;;;;;;13.89;48.79;100071.55;1638696;85;21054;-77
2021/10/12 09:47:26;;;;;;;24.80;20.48;;;;;;;13.94;48.83;100064.21;1656598;85;20995;-78
2021/10/12 09:50:09;;;;;;;20.08;17.95;;;;;;;14.04;48.70;100056.50;1655796;84;21552;-78
2021/10/12 09:52:38;;;;;;;21.02;17.52;;;;;;;14.11;48.43;100047.89;1662320;85;21020;-80
2021/10/12 09:55:05;;;;;;;20.25;17.12;;;;;;;14.20;48.25;100054.63;1688981;83;20973;-76
2021/10/12 09:57:34;;;;;;;26.62;19.60;;;;;;;14.28;48.07;100045.48;1635811;87;21006;-78
2021/10/12 10:00:01;;;;;;;22.25;18.50;;;;;;;14.35;47.97;100046.75;1615842;87;21531;-76
2021/10/12 10:02:27;;;;;;;19.57;17.52;;;;;;;14.43;48.06;100042.46;1629842;86;21042;-77
2021/10/12 10:04:54;;;;;;;19.32;15.88;;;;;;;14.53;47.85;100031.22;1624775;86;21082;-75
2021/10/12 10:07:30;;;;;;;17.23;14.18;;;;;;;14.60;47.48;100027.45;1634142;87;21223;-77
2021/10/12 10:10:07;;;;;;;18.25;16.23;;;;;;;14.65;47.38;100026.78;1607789;87;21093;-76
2021/10/12 10:12:35;;;;;;;16.80;13.80;;;;;;;14.66;47.62;100024.41;1638897;86;20989;-73
2021/10/12 10:15:03;;;;;;;16.75;13.40;;;;;;;14.62;47.83;100017.02;1635528;87;21101;-76
2021/10/12 10:17:32;;;;;;;16.90;13.13;;;;;;;14.58;47.91;100013.98;1632081;87;21028;-73
2021/10/12 10:20:03;;;;;;;19.20;13.88;;;;;;;14.56;47.96;100006.13;1604807;88;21006;-74
2021/10/12 10:25:34;;;;;;;18.02;15.32;;;;;;;14.44;48.14;100013.78;1616918;88;21002;-79
2021/10/12 10:28:23;;;;;;;24.47;15.10;;;;;;;14.32;48.46;100021.73;1645432;86;21131;-75
2021/10/12 10:30:59;;;;;;;21.05;14.60;;;;;;;14.25;48.92;100010.25;1609788;88;21107;-75
2021/10/12 10:33:49;;;;;;;19.92;14.13;;;;;;;14.23;49.09;100003.77;1668394;84;21059;-61
2021/10/12 10:36:19;;;;;;;16.45;12.58;;;;;;;14.23;49.22;100002.95;1664820;84;21306;-62
2021/10/12 10:38:47;;;;;;;16.27;11.95;;;;;;;14.26;49.50;100006.02;1642700;86;21029;-60
2021/10/12 10:41:21;;;;;;;16.30;12.45;;;;;;;14.30;49.46;100007.73;1666604;84;22340;-59
2021/10/12 10:44:01;;;;;;;18.20;12.73;;;;;;;14.33;49.56;99996.02;1669692;84;21028;-57
2021/10/12 10:46:36;;;;;;;16.30;13.18;;;;;;;14.32;49.28;99995.73;1686920;84;21051;-57
2021/10/12 10:49:20;;;;;;;23.22;14.18;;;;;;;14.32;49.56;99997.61;1695620;84;21027;-59
2021/10/12 10:52:05;;;;;;;17.25;13.65;;;;;;;14.33;49.29;99994.68;1695976;84;21087;-58
2021/10/12 10:54:47;;;;;;;21.77;15.08;;;;;;;14.35;49.23;99991.78;1679875;84;21013;-59
2021/10/12 10:57:18;;;;;;;17.07;14.40;;;;;;;14.38;49.01;99984.12;1737489;81;20937;-60
2021/10/12 10:59:46;;;;;;;17.92;15.23;;;;;;;14.38;48.91;99988.14;1744943;81;21814;-59
2021/10/12 11:02:36;;;;;;;22.60;16.23;;;;;;;14.40;48.86;99986.58;1749476;81;21021;-60
2021/10/12 11:05:02;;;;;;;20.20;15.20;;;;;;;14.43;48.90;99978.11;1751726;81;20989;-60
2021/10/12 11:07:29;;;;;;;22.05;17.82;;;;;;;14.43;48.88;99975.42;1716100;82;20989;-60
2021/10/12 11:09:58;;;;;;;17.20;15.32;;;;;;;14.46;48.85;99975.49;1707406;83;20955;-61
2021/10/12 11:12:28;;;;;;;16.65;14.73;;;;;;;14.49;48.71;99973.19;1714361;82;21043;-59
2021/10/12 11:15:08;;;;;;;21.68;15.48;;;;;;;14.49;48.63;99963.80;1691405;83;21089;-61
2021/10/12 11:17:35;;;;;;;20.55;15.65;;;;;;;14.45;48.79;99965.30;1713597;83;20975;-59
2021/10/12 11:20:11;;;;;;;27.17;15.20;;;;;;;14.43;48.82;99964.70;1714968;82;21004;-58
2021/10/12 11:22:42;;;;;;;20.72;15.28;;;;;;;14.39;48.82;99959.45;1694572;83;21004;-59
2021/10/12 11:25:11;;;;;;;19.92;14.85;;;;;;;14.31;48.89;99963.78;1702371;82;21009;-60
2021/10/12 11:27:44;;;;;;;17.05;15.30;;;;;;;14.26;49.12;99963.13;1689736;82;20985;-59
2021/10/12 11:30:14;;;;;;;19.57;15.80;;;;;;;14.25;49.25;99959.31;1687575;82;21390;-59
2021/10/12 11:32:41;;;;;;;24.87;16.23;;;;;;;14.29;49.30;99957.83;1692606;82;20993;-60